Kraków John Paul II International Airport

METAR EPKK TAF EPKK
-1 °C
°C
-
°C
29m
Age
16:59:18
LT
15:59
UTC
0 ft

1,000

2,000

3,000

4,000

5,000

SCT 3,000
SCT 4,600
VFR
<?= Yii::t('app', 'Wind direction') ?> <?= Yii::t('app', 'of'); ?>
320°
07:10
Sunrise
69%
Humidity
Wind shear
Closed/Snow
RWY visual range
RWY condition
Vert. visibility
Min. visibility
CAVOK
Trend
Correction
Special report
1029 hPa
QNH
METAR EPKK 041530Z 32012KT 9999 SCT030 SCT046 M01/M06 Q1029
Scattered clouds
11 kt
11 kt
16:00
IFR
15 kt
17:00
IFR
15 kt
18:00
LIFR
15 kt
19:00
LIFR
15 kt
20:00
LIFR
15 kt
21:00
LIFR
15 kt
22:00
IFR
15 kt
10 km+
Visibility
None
Ceiling
12 kt
Wind
metar-taf.com/EPKK

Metar-Taf.com

Visual decoder

We and third parties follow your internet behavior on our website with cookies. If you continue, we assume you agree with our cookie policy.